Aviation Digital Data Service (ADDS)

Output produced by METARs form (2345 UTC 26 March 2015)
found at http://www.aviationweather.gov/adds/metars/
 
KBFD 262330Z AUTO 30005KT 10SM -RA OVC005 02/01 A2975 RMK AO2 RAB27 P0000 T00170006
KBFD 262253Z AUTO 30005KT 10SM BKN004 BKN027 OVC090 02/01 A2975 RMK AO2 RAE34 SLP089 P0001 T00170006
KBFD 262234Z AUTO 00000KT 10SM BKN004 BKN047 OVC090 02/01 A2974 RMK AO2 RAE34 P0001 T00170006
KBFD 262153Z AUTO 31005KT 4SM -RA BR OVC006 02/01 A2975 RMK AO2 SLP088 P0002 T00170006
KBFD 262053Z AUTO 33006KT 10SM -RA OVC007 02/01 A2973 RMK AO2 RAB26 CIG 004V009 SLP080 P0000 60004 T00220011 53003
KBFD 262036Z AUTO 33009KT 10SM -RA BKN005 OVC009 02/01 A2972 RMK AO2 RAB26 CIG 004V007 P0000 T00220011
KBFD 261953Z AUTO 34004KT 9SM OVC004 02/02 A2971 RMK AO2 RAE29 SLP074 P0001 T00220017
KBFD 261853Z AUTO 36005KT 4SM -RA BR BKN004 BKN008 OVC032 02/01 A2971 RMK AO2 SLP076 P0003 T00220011
KBFD 261831Z AUTO 34006KT 3SM -RA BR SCT004 OVC032 02/01 A2971 RMK AO2 P0002 T00220011
KBFD 261753Z AUTO 33006KT 3SM -RA BR OVC004 03/02 A2972 RMK AO2 CIG 002V008 SLP079 P0004 60019 T00280017 10039 20017 56022
KBFD 261734Z AUTO 32006KT 4SM -RA BR OVC004 03/02 A2972 RMK AO2 CIG 001V006 P0003 T00280022
KBFD 261719Z AUTO 01005KT 3SM -RA BR OVC002 03/02 A2971 RMK AO2 CIG 001V006 P0002 T00280022
KBFD 261653Z AUTO 35005KT 2SM -RA BR BKN002 OVC030 03/02 A2974 RMK AO2 SLP085 P0008 T00280022
KBFD 261644Z AUTO 33005KT 2 1/2SM -RA BR BKN002 OVC030 03/02 A2974 RMK AO2 P0008 T00280022
KBFD 261633Z AUTO 35007KT 1 3/4SM RA BR BKN002 OVC019 03/02 A2974 RMK AO2 P0006 T00280022
KBFD 261626Z AUTO 36006KT 2SM -RA BR OVC002 03/02 A2974 RMK AO2 P0005 T00280022
KBFD 261611Z AUTO 34006KT 1 1/2SM RA BR OVC002 03/02 A2975 RMK AO2 P0003 T00280022
KBFD 261603Z AUTO 34007KT 3/4SM -RA BR OVC002 03/02 A2975 RMK AO2 P0002 T00280022
KBFD 261553Z AUTO 32010KT 1 1/2SM -RA BR OVC002 03/02 A2976 RMK AO2 RAE08B39 PRESRR SLP092 P0000 T00330022
KBFD 261533Z AUTO 04008KT 2 1/2SM BR OVC002 03/03 A2973 RMK AO2 RAE08 P0000 T00330028
KBFD 261520Z AUTO 04005KT 1 1/2SM BR OVC002 03/03 A2974 RMK AO2 RAE08 PRESFR P0000 T00330028
KBFD 261501Z AUTO 35006KT 2SM -RA BR OVC003 03/03 A2977 RMK AO2 CIG 001V008 P0000 T00330028
KBFD 261453Z AUTO 33005KT 1 1/4SM -RA BR OVC002 03/02 A2979 RMK AO2 RAE32B44 CIG 001V008 SLP101 P0001 60007 T00330022 57010
KBFD 261434Z AUTO 01005KT 1 1/2SM BR OVC002 04/03 A2976 RMK AO2 RAE32 P0001 T00390028
KBFD 261400Z AUTO 32007KT 3/4SM -RA BR BKN002 BKN042 OVC050 03/02 A2981 RMK AO2 LTG DSNT E AND SE P0000 T00280022
KBFD 261353Z AUTO 00000KT 1 1/4SM -RA BR SCT002 BKN042 OVC060 04/03 A2982 RMK AO2 LTG DSNT E AND SE RAB09 SLP112 P0006 T00390033
KBFD 261351Z AUTO 00000KT 1SM -RA BR SCT002 BKN042 OVC060 04/03 A2981 RMK AO2 LTG DSNT E AND SE RAB09 P0006
KBFD 261341Z AUTO VRB04KT 1/4SM -RA FG FEW003 BKN042 OVC060 03/02 A2981 RMK AO2 LTG DSNT SE AND S RAB09 P0006 T00280022
KBFD 261335Z AUTO 05005KT 1/2SM RA FG BKN042 OVC060 03/02 A2978 RMK AO2 LTG DSNT S RAB09 P0005 T00280022
KBFD 261328Z AUTO 00000KT 1SM RA BR FEW002 OVC040 03/02 A2981 RMK AO2 LTG DSNT S RAB09 P0004 T00330022
KBFD 261300Z AUTO 14004KT 3/4SM BR FEW002 OVC042 03/02 A2979 RMK AO2 T00330022
KBFD 261253Z AUTO 14004KT 1/4SM FG OVC042 03/02 A2978 RMK AO2 RAB24E37 SLP098 P0000 T00280022
KBFD 261223Z AUTO 00000KT 1/4SM FG SCT005 OVC042 02/02 A2981 RMK AO2 T00220022
KBFD 261153Z AUTO 33003KT 1/4SM FG OVC005 02/02 A2982 RMK AO2 SLP110 70011 I6001 T00220017 10028 21017 56033
KBFD 261117Z AUTO 00000KT 1/4SM FG OVC006 01/00 A2984 RMK AO2 T00110000
KBFD 261053Z AUTO 00000KT 1 1/2SM BR OVC006 01/00 A2986 RMK AO2 SLP125 T00060000
KBFD 261030Z AUTO 00000KT 1 3/4SM BR OVC007 01/00 A2987 RMK AO2 T00060000
KBFD 261000Z AUTO 00000KT 2SM BR OVC007 00/M01 A2989 RMK AO2 T00001006
KBFD 260953Z AUTO 00000KT 1 3/4SM BR OVC007 01/00 A2988 RMK AO2 SLP134 T00060000
KBFD 260930Z AUTO 00000KT 1SM BR OVC008 02/01 A2988 RMK AO2 T00170011
KBFD 260923Z AUTO 00000KT 3/4SM BR OVC008 01/01 A2989 RMK AO2 T00110011
KBFD 260912Z AUTO 01003KT 1 3/4SM BR OVC008 02/02 A2990 RMK AO2 PRESFR T00220017
KBFD 260905Z AUTO 30003KT 3SM BR OVC009 02/02 A2991 RMK AO2 T00220017
KBFD 260853Z AUTO 28003KT 2SM BR OVC009 01/00 A2992 RMK AO2 SLP148 I3001 T00110000 58007
KBFD 260842Z AUTO 22003KT 4SM BR BKN009 03/02 A2992 RMK AO2 T00330017
KBFD 260831Z AUTO 00000KT 2SM BR BKN009 M01/M01 A2993 RMK AO2 T10061006
KBFD 260820Z AUTO 00000KT 1 1/4SM BR SCT009 M01/M02 A2993 RMK AO2 T10111022
KBFD 260748Z AUTO 00000KT 3/4SM BR VV006 M01/M01 A2994 RMK AO2 SLP155 I1001 T10061011
KBFD 260747Z AUTO 00000KT 3/4SM BR VV006 M01/M01 A2994 RMK AO2 I1001
KBFD 260738Z AUTO 20003KT 1 1/4SM BR FEW006 00/M01 A2994 RMK AO2 VIS 1/2V2 1/2 I1001 T00001006
KBFD 260729Z AUTO 00000KT 3/4SM BR VV005 00/M01 A2995 RMK AO2 I1000 T00001011
KBFD 260715Z AUTO 00000KT 1/4SM FZFG VV005 M01/M02 A2996 RMK AO2 T10061022
KBFD 260710Z AUTO 00000KT 1/2SM FZFG VV004 M01/M02 A2996 RMK AO2 T10111022
KBFD 260653Z AUTO 00000KT 1/4SM FZFG VV004 M01/M02 A2995 RMK AO2 SLP159 I1000 T10111022
KBFD 260648Z AUTO 00000KT 1/4SM FZFG VV004 M01/M02 A2995 RMK AO2 I1000
KBFD 260617Z AUTO 00000KT 1/4SM FZFG VV005 M01/M02 A2995 RMK AO2 T10061017
KBFD 260610Z AUTO 00000KT 1/2SM FZFG VV005 M01/M02 A2995 RMK AO2 T10111017
KBFD 260553Z AUTO 12003KT 1/4SM FZFG VV006 M01/M01 A2995 RMK AO2 SLP161 I6001 T10061011 10017 21017 56012
KBFD 260545Z AUTO 13003KT 1/2SM FG VV006 00/M01 A2996 RMK AO2 T00001006
KBFD 260524Z AUTO 13004KT 1/4SM FZFG VV005 M01/M02 A2995 RMK AO2 T10111017
KBFD 260517Z AUTO 13003KT 1/2SM FZFG VV005 M01/M01 A2995 RMK AO2 T10061011
KBFD 260453Z AUTO 10003KT 1/4SM FG VV005 00/M01 A2996 RMK AO2 SLP162 I1001 T00001011 400281067
KBFD 260431Z AUTO 13004KT 1/4SM FZFG VV005 M01/M03 A2996 RMK AO2 I1000 T10111028
KBFD 260424Z AUTO 13003KT 1/4SM FZFG VV004 M01/M02 A2997 RMK AO2 I1000 T10111022
KBFD 260412Z AUTO 00000KT 3/4SM BR VV004 00/M01 A2997 RMK AO2 I1000 T00001011
KBFD 260353Z AUTO 00000KT 1/4SM FZFG VV004 M01/M01 A2996 RMK AO2 SLP164 T10061011
KBFD 260327Z AUTO 13003KT 1/4SM FZFG VV005 M01/M01 A2998 RMK AO2 T10061011
KBFD 260321Z AUTO 13003KT 3/4SM BR FEW120 00/M01 A2998 RMK AO2 T00001011
KBFD 260313Z AUTO 13003KT 1SM BR SCT110 00/M01 A2998 RMK AO2 T00001006
KBFD 260253Z AUTO 12004KT 1/2SM FG FEW006 BKN110 00/M01 A2999 RMK AO2 SLP171 T00001006 58008
KBFD 260251Z AUTO 12004KT 1/4SM FG FEW006 BKN110 00/M01 A2999 RMK AO2
KBFD 260238Z AUTO 13004KT 1/2SM FG FEW006 SCT120 00/M01 A3000 RMK AO2 T00001006
KBFD 260224Z AUTO 12004KT 1/4SM FG VV006 01/M01 A3000 RMK AO2 T00061006
KBFD 260208Z AUTO 14004KT 3/4SM BR CLR M01/M01 A3001 RMK AO2 T10061011
KBFD 260153Z AUTO 14004KT 1 3/4SM BR CLR 01/00 A3001 RMK AO2 SLP180 T00060000
KBFD 260053Z AUTO 15003KT 4SM BR FEW013 02/01 A3001 RMK AO2 SLP180 T00220011
KBFD 260043Z AUTO 15003KT 5SM BR SCT013 02/01 A3001 RMK AO2 T00220011
KBFD 260016Z AUTO 15008KT 5SM BR OVC015 03/01 A3000 RMK AO2 T00280011
KBFD 252353Z AUTO 16004KT 5SM BR OVC013 03/02 A3001 RMK AO2 SLP177 60001 T00280017 10028 20006 53012
KBFD 252341Z AUTO VRB03KT 4SM BR OVC014 03/02 A3001 RMK AO2 T00280017
KBFD 252253Z AUTO 16005KT 3SM BR OVC020 03/02 A2999 RMK AO2 SLP172 T00280017
KBFD 252153Z AUTO 19007KT 4SM BR SCT006 BKN017 OVC022 03/02 A2997 RMK AO2 SLP167 T00280017
KBFD 252124Z AUTO 17007KT 4SM BR SCT006 SCT009 OVC020 03/02 A2997 RMK AO2 T00280017
KBFD 252053Z AUTO 15008KT 4SM BR BKN005 OVC017 02/01 A2997 RMK AO2 RAE16 SLP165 P0000 60001 T00220011 56009
KBFD 251953Z AUTO 16009KT 4SM -RA BR OVC005 02/01 A2997 RMK AO2 SLP168 P0001 T00170006
KBFD 251928Z AUTO 16008KT 130V220 4SM -RA BR OVC005 02/00 A2997 RMK AO2 P0001 T00170000
KBFD 251912Z AUTO 18007G18KT 2SM -RA BR OVC005 02/00 A2997 RMK AO2 P0000 T00170000
KBFD 251853Z AUTO 15010G17KT 5SM -RA BR OVC005 01/00 A2997 RMK AO2 RAE00B28 SLP170 P0000 T00110000
KBFD 251753Z AUTO 14012G18KT 5SM -RA BR OVC006 01/M01 A2999 RMK AO2 SLP179 P0005 60010 T00061006 10017 20000 58026
KBFD 251743Z AUTO 14012G19KT 3SM -RA BR OVC006 01/M01 A2999 RMK AO2 CIG 005V011 P0005 T00061006
KBFD 251719Z AUTO 14014G21KT 2SM RA BR OVC008 01/M01 A3001 RMK AO2 CIG 007V011 P0003 T00061011
KBFD 251707Z AUTO 15012G21KT 2 1/2SM -RA BR BKN010 OVC050 01/M01 A3001 RMK AO2 P0001 T00061011
KBFD 251702Z AUTO 15013G20KT 3SM -RA BR BKN009 OVC049 01/M01 A3002 RMK AO2 P0001 T00061011
KBFD 251653Z AUTO 15015G24KT 2 1/2SM RA BR FEW009 SCT013 OVC049 01/M01 A3002 RMK AO2 SLP189 P0005 T00061011
KBFD 251639Z AUTO 16012G22KT 3SM -RA BR FEW012 BKN048 OVC055 01/M02 A3004 RMK AO2 P0002 T00061017
KBFD 251553Z AUTO 16013G21KT 8SM -RA BKN026 OVC035 01/M03 A3005 RMK AO2 SLP196 P0000 T00111028
KBFD 251542Z AUTO 16013G20KT 7SM -RA SCT014 BKN026 OVC045 01/M03 A3005 RMK AO2 P0000 T00111028
KBFD 251513Z AUTO 15009KT 8SM -RA BKN014 OVC019 01/M03 A3007 RMK AO2 P0000 T00111028
KBFD 251453Z AUTO 15011G21KT 9SM -RA BKN019 OVC024 02/M04 A3008 RMK AO2 RAB41 SLP204 P0000 60000 T00171044 58019
KBFD 251413Z AUTO 16008KT 130V200 10SM OVC029 01/M06 A3011 RMK AO2 T00111056
KBFD 251353Z AUTO 15009KT 10SM SCT030 BKN036 BKN070 01/M06 A3010 RMK AO2 SLP214 T00111056
KBFD 251253Z AUTO 16010G18KT 10SM CLR 00/M07 A3013 RMK AO2 SLP223 T00001067
KBFD 251153Z AUTO 14009KT 10SM CLR M01/M07 A3014 RMK AO2 SLP224 T10111072 11011 21067 56008